METAR Data
IDs: Format: Raw Decoded Include TAF

Data at: 1335 UTC 21 Apr 2021

METAR for:KIFA (Iowa Falls Muni, IA, US)
Text:KIFA 211335Z AUTO 35011KT 10SM SCT047 BKN065 BKN110 02/M08 A3019 RMK AO2 T00181078
Temperature: 1.8°C ( 35°F)
Dewpoint: -7.8°C ( 18°F) [RH = 49%]
Pressure (altimeter):30.19 inches Hg (1022.4 mb)
Winds:from the N (350 degrees) at 13 MPH (11 knots; 5.7 m/s)
Visibility:10 or more sm (16+ km)
Ceiling:6500 feet AGL
Clouds: scattered clouds at 4700 feet AGL, broken clouds at 6500 feet AGL, broken clouds at 11000 feet AGL
QC Flag:automated observation with no human augmentation